Hauptseite
METAR-TAF:

METAR-TAF

Flughäfen :

Farnborough Airfield

Farnborough, England

Breite: 51-17N, Länge: 000-46W, Höhe: 65 m

Beobachtung

Neuester Wetterbericht von vor 5 Stunden und 24 Minuten, um 21:50 UTC
Wind 8 kt aus Ost
Temperatur 9°C
Luftfeuchtigkeit 100%
Luftdruck 1025 hPa
Sichtweite: 4500 m
Durchbrochene Bewölkung in der Höhe von 200 ft
Sprühregen leicht, feuchter Dunst

METAR: EGLF 162150Z 08008KT 4500 -DZ BR BKN002 09/09 Q1025

Zeit: 03:14 (03:14 UTC)

Prognose

Neuester Wetterbericht von vor 8 Stunden und 53 Minuten, um 18:21 UTC
Gültige Prognose vom 16 um 18 UTC bis 16 um 22 UTC
Wind 5 kt aus Ost/Südost
Sichtweite: 5000 m
Durchbrochene Bewölkung in der Höhe von 300 ft
feuchter Dunst
Wahrscheinlichkeit 30% :
Zeitweise
vom 16 um 18 UTC bis 16 um 22 UTC
Sichtweite: 1200 m
Durchbrochene Bewölkung in der Höhe von 100 ft

TAF: EGLF 161821Z 1618/1622 12005KT 5000 BR BKN003 PROB30 TEMPO 1618/1622 1200 BKN001

Wetterbeobachtungen und Prognosen von mehr als 4000 Flughäfen (METAR und TAF Bericht).

Die verfügbaren Stationen werden durch gelbe und rote Markierungen auf der Karte dargestellt.

Führen Sie die Maus auf sie, um den Namen der Station zu sehen.

Darauf klicken, um die Beobachtung von Wetterbeobachtungen und Prognosen zu sehen.

Um die Karte zu ändern : klicken Sie auf den grünen Tasten mit einem schwarzen Kreuz Zum Vergrößern, auf den grünen Button mit einem Gedankenstrich zu verkleinern, oder auf die grünen Pfeile für benachbarte Karten.


METAR-TAF: